createdAt,value
2023-02-05T00:01:35.175Z,2.10
2023-02-05T00:04:02.660Z,2.30
2023-02-05T00:06:29.672Z,1.97
2023-02-05T00:08:57.739Z,1.90
2023-02-05T00:11:24.997Z,2.20
2023-02-05T00:13:52.282Z,2.20
2023-02-05T00:16:21.462Z,2.10
2023-02-05T00:18:49.080Z,1.97
2023-02-05T00:21:16.736Z,1.70
2023-02-05T00:23:43.880Z,1.50
2023-02-05T00:26:10.838Z,1.83
2023-02-05T00:28:38.242Z,1.70
2023-02-05T00:31:20.552Z,1.80
2023-02-05T00:33:49.151Z,2.07
2023-02-05T00:36:17.023Z,1.87
2023-02-05T00:38:45.114Z,2.20
2023-02-05T00:41:12.633Z,2.20
2023-02-05T00:43:40.217Z,1.73
2023-02-05T00:46:07.902Z,2.03
2023-02-05T00:48:35.002Z,2.23
2023-02-05T00:51:02.323Z,2.40
2023-02-05T00:53:29.348Z,2.30
2023-02-05T00:55:56.272Z,1.90
2023-02-05T00:58:23.304Z,2.07
2023-02-05T01:00:51.214Z,2.50
2023-02-05T01:03:20.411Z,2.00
2023-02-05T01:05:47.435Z,2.43
2023-02-05T01:08:14.812Z,2.47
2023-02-05T01:10:47.098Z,1.80
2023-02-05T01:13:16.994Z,1.93
2023-02-05T01:15:45.697Z,3.10
2023-02-05T01:18:13.405Z,2.67
2023-02-05T01:20:41.738Z,2.83
2023-02-05T01:23:08.983Z,2.90
2023-02-05T01:25:36.062Z,2.80
2023-02-05T01:28:03.844Z,3.00
2023-02-05T01:30:30.922Z,2.83
2023-02-05T01:32:57.928Z,2.70
2023-02-05T01:35:24.868Z,2.30
2023-02-05T01:37:51.812Z,2.27
2023-02-05T01:40:19.388Z,2.30
2023-02-05T01:42:46.720Z,2.40
2023-02-05T01:45:22.473Z,2.17
2023-02-05T01:47:54.865Z,2.37
2023-02-05T01:50:29.495Z,2.53
2023-02-05T01:52:59.312Z,2.33
2023-02-05T01:55:27.789Z,2.60
2023-02-05T01:57:55.911Z,2.40
2023-02-05T02:00:23.858Z,2.60
2023-02-05T02:02:51.212Z,2.47
2023-02-05T02:05:18.477Z,2.30
2023-02-05T02:07:45.928Z,2.53
2023-02-05T02:10:15.190Z,2.60
2023-02-05T02:12:45.081Z,2.40
2023-02-05T02:15:16.280Z,2.40
2023-02-05T02:17:46.970Z,2.30
2023-02-05T02:20:18.838Z,2.50
2023-02-05T02:22:54.945Z,2.53
2023-02-05T02:25:59.203Z,2.50
2023-02-05T02:28:39.865Z,2.63
2023-02-05T02:31:28.079Z,2.17
2023-02-05T02:34:07.690Z,2.40
2023-02-05T02:36:41.802Z,2.33
2023-02-05T02:39:20.841Z,2.50
2023-02-05T02:41:55.270Z,2.33
2023-02-05T02:44:44.629Z,2.00
2023-02-05T02:47:19.134Z,2.10
2023-02-05T02:49:55.211Z,2.10
2023-02-05T02:52:25.126Z,2.20
2023-02-05T02:54:57.339Z,2.50
2023-02-05T02:57:28.412Z,2.67
2023-02-05T02:59:59.608Z,2.40
2023-02-05T03:02:31.165Z,2.20
2023-02-05T03:05:14.449Z,2.50
2023-02-05T03:07:59.364Z,2.40
2023-02-05T03:10:36.208Z,2.70
2023-02-05T03:13:03.232Z,2.60
2023-02-05T03:15:30.960Z,2.30
2023-02-05T03:17:58.194Z,2.47
2023-02-05T03:20:38.821Z,2.30
2023-02-05T03:23:06.128Z,2.43
2023-02-05T03:25:33.328Z,2.67
2023-02-05T03:28:00.485Z,2.47
2023-02-05T03:30:43.820Z,2.50
2023-02-05T03:33:29.351Z,2.60
2023-02-05T03:36:13.305Z,2.30
2023-02-05T03:38:51.915Z,2.50
2023-02-05T03:41:56.326Z,2.40
2023-02-05T03:44:51.611Z,2.40
2023-02-05T03:47:25.405Z,2.97
2023-02-05T03:50:04.894Z,2.40
2023-02-05T03:52:37.799Z,2.60
2023-02-05T03:55:15.393Z,2.40
2023-02-05T03:58:05.019Z,2.70
2023-02-05T04:00:33.243Z,2.50
2023-02-05T04:03:00.285Z,2.10
2023-02-05T04:05:27.189Z,2.53
2023-02-05T04:07:54.291Z,2.70
2023-02-05T04:10:21.336Z,2.50
2023-02-05T04:12:48.329Z,2.80
2023-02-05T04:15:15.330Z,2.40
2023-02-05T04:17:42.271Z,2.30
2023-02-05T04:20:09.775Z,2.43
2023-02-05T04:23:08.092Z,2.40
2023-02-05T04:25:37.438Z,2.40
2023-02-05T04:28:05.598Z,2.03
2023-02-05T04:30:33.881Z,2.13
2023-02-05T04:33:03.723Z,2.03
2023-02-05T04:35:30.630Z,3.30
2023-02-05T04:37:57.528Z,2.10
2023-02-05T04:40:24.455Z,2.50
2023-02-05T04:42:51.441Z,2.30
2023-02-05T04:45:18.485Z,2.50
2023-02-05T04:47:45.426Z,2.80
2023-02-05T04:50:12.332Z,2.37
2023-02-05T04:52:39.301Z,2.70
2023-02-05T04:55:06.779Z,2.50
2023-02-05T04:57:33.818Z,3.00
2023-02-05T05:00:00.755Z,2.90
2023-02-05T05:02:27.693Z,2.60
2023-02-05T05:04:54.635Z,3.00
2023-02-05T05:07:21.544Z,2.90
2023-02-05T05:09:49.454Z,2.70
2023-02-05T05:12:17.005Z,2.93
2023-02-05T05:14:43.926Z,3.20
2023-02-05T05:17:12.541Z,3.10
2023-02-05T05:19:39.515Z,3.00
2023-02-05T05:22:06.479Z,2.70
2023-02-05T05:24:33.388Z,2.80
2023-02-05T05:27:00.349Z,2.87
2023-02-05T05:29:27.376Z,2.90
2023-02-05T05:31:54.609Z,2.83
2023-02-05T05:34:21.552Z,3.00
2023-02-05T05:36:48.528Z,2.83
2023-02-05T05:39:34.266Z,3.17
2023-02-05T05:42:19.568Z,3.27
2023-02-05T05:44:50.084Z,2.83
2023-02-05T05:47:17.075Z,3.20
2023-02-05T05:49:44.190Z,3.10
2023-02-05T05:52:11.558Z,3.20
2023-02-05T05:54:38.616Z,2.97
2023-02-05T05:57:07.359Z,3.10
2023-02-05T05:59:34.701Z,3.40
2023-02-05T06:02:02.572Z,2.60
2023-02-05T06:04:30.240Z,3.30
2023-02-05T06:06:57.468Z,3.07
2023-02-05T06:09:24.990Z,3.10
2023-02-05T06:11:51.979Z,3.03
2023-02-05T06:14:18.904Z,2.83
2023-02-05T06:16:45.829Z,2.90
2023-02-05T06:19:12.808Z,2.70
2023-02-05T06:21:39.778Z,3.00
2023-02-05T06:24:06.836Z,3.40
2023-02-05T06:26:33.775Z,3.03
2023-02-05T06:29:03.241Z,2.97
2023-02-05T06:31:31.194Z,3.50
2023-02-05T06:33:58.140Z,3.20
2023-02-05T06:36:25.116Z,3.13
2023-02-05T06:38:52.269Z,2.67
2023-02-05T06:41:19.247Z,3.50
2023-02-05T06:43:46.159Z,2.73
2023-02-05T06:46:13.086Z,3.10
2023-02-05T06:48:40.165Z,2.73
2023-02-05T06:51:07.086Z,2.50
2023-02-05T06:53:34.039Z,2.60
2023-02-05T06:56:00.983Z,2.80
2023-02-05T06:58:27.939Z,2.87
2023-02-05T07:00:54.899Z,3.00
2023-02-05T07:03:21.885Z,2.63
2023-02-05T07:05:48.818Z,3.30
2023-02-05T07:08:15.876Z,3.17
2023-02-05T07:10:42.813Z,3.97
2023-02-05T07:13:09.808Z,2.60
2023-02-05T07:15:37.502Z,2.47
2023-02-05T07:18:05.106Z,2.37
2023-02-05T07:20:32.152Z,1.80
2023-02-05T07:22:59.052Z,1.70
2023-02-05T07:25:26.053Z,1.70
2023-02-05T07:27:53.040Z,2.33
2023-02-05T07:30:20.085Z,2.20
2023-02-05T07:32:46.963Z,2.40
2023-02-05T07:35:13.864Z,2.33
2023-02-05T07:37:40.792Z,2.20
2023-02-05T07:40:08.600Z,2.00
2023-02-05T07:42:35.572Z,2.03
2023-02-05T07:45:02.729Z,2.30
2023-02-05T07:47:29.733Z,2.23
2023-02-05T07:49:56.847Z,2.00
2023-02-05T07:52:23.753Z,2.30
2023-02-05T07:54:50.713Z,2.17
2023-02-05T07:57:17.633Z,2.00
2023-02-05T07:59:44.576Z,6.07
2023-02-05T08:02:11.875Z,2.03
2023-02-05T08:04:38.995Z,2.20
2023-02-05T08:07:06.061Z,2.30
2023-02-05T08:09:33.331Z,2.10
2023-02-05T08:12:00.340Z,2.30
2023-02-05T08:14:27.263Z,2.40
2023-02-05T08:16:54.201Z,2.40
2023-02-05T08:19:21.154Z,2.30
2023-02-05T08:21:48.032Z,2.43
2023-02-05T08:24:14.980Z,2.50
2023-02-05T08:26:42.376Z,2.60
2023-02-05T08:29:10.330Z,2.70
2023-02-05T08:31:37.919Z,2.40
2023-02-05T08:34:04.952Z,3.40
2023-02-05T08:36:31.894Z,3.80
2023-02-05T08:38:59.022Z,2.90
2023-02-05T08:41:25.962Z,3.30
2023-02-05T08:43:52.844Z,3.53
2023-02-05T08:46:22.624Z,2.73
2023-02-05T08:48:49.828Z,2.83
2023-02-05T08:51:20.955Z,3.20
2023-02-05T08:53:47.983Z,4.07
2023-02-05T08:56:15.870Z,3.50
2023-02-05T08:58:43.528Z,3.23
2023-02-05T09:01:14.189Z,3.20
2023-02-05T09:03:41.327Z,3.70
2023-02-05T09:06:11.799Z,4.73
2023-02-05T09:08:38.757Z,4.47
2023-02-05T09:11:06.663Z,6.30
2023-02-05T09:13:34.274Z,5.47
2023-02-05T09:16:01.316Z,5.80
2023-02-05T09:18:28.229Z,5.23
2023-02-05T09:20:55.185Z,4.30
2023-02-05T09:23:22.371Z,4.83
2023-02-05T09:25:49.306Z,4.80
2023-02-05T09:28:16.601Z,5.53
2023-02-05T09:30:45.966Z,4.60
2023-02-05T09:33:15.597Z,5.00
2023-02-05T09:35:42.623Z,6.33
2023-02-05T09:38:13.349Z,5.40
2023-02-05T09:40:53.488Z,6.83
2023-02-05T09:43:29.660Z,8.87
2023-02-05T09:46:01.604Z,5.73
2023-02-05T09:49:02.560Z,5.47
2023-02-05T09:51:34.115Z,5.83
2023-02-05T09:54:15.121Z,8.07
2023-02-05T09:56:44.886Z,6.70
2023-02-05T09:59:18.429Z,7.57
2023-02-05T10:01:51.008Z,8.27
2023-02-05T10:04:18.289Z,7.47
2023-02-05T10:06:54.308Z,8.70
2023-02-05T10:09:39.974Z,9.90
2023-02-05T10:12:31.649Z,9.50
2023-02-05T10:15:21.212Z,6.53
2023-02-05T10:18:18.942Z,5.30
2023-02-05T10:21:12.071Z,5.63
2023-02-05T10:24:16.221Z,5.27
2023-02-05T10:26:49.810Z,4.63
2023-02-05T10:29:23.973Z,5.20
2023-02-05T10:32:08.340Z,4.57
2023-02-05T10:34:58.057Z,4.60
2023-02-05T10:37:36.561Z,4.73
2023-02-05T10:40:12.944Z,5.00
2023-02-05T10:42:47.825Z,5.43
2023-02-05T10:45:19.226Z,5.17
2023-02-05T10:48:19.070Z,4.50
2023-02-05T10:50:51.863Z,6.60
2023-02-05T10:53:22.606Z,5.27
2023-02-05T10:55:50.341Z,5.37
2023-02-05T10:58:38.678Z,4.00
2023-02-05T11:01:16.564Z,4.60
2023-02-05T11:03:53.878Z,4.50
2023-02-05T11:06:23.393Z,4.77
2023-02-05T11:08:50.362Z,5.17
2023-02-05T11:11:21.742Z,5.17
2023-02-05T11:13:55.280Z,6.10
2023-02-05T11:16:23.567Z,5.77
2023-02-05T11:19:00.112Z,6.73
2023-02-05T11:21:51.223Z,8.40
2023-02-05T11:24:36.145Z,7.77
2023-02-05T11:27:26.887Z,6.90
2023-02-05T11:30:00.051Z,6.53
2023-02-05T11:32:36.666Z,6.50
2023-02-05T11:35:19.631Z,6.30
2023-02-05T11:37:51.209Z,5.90
2023-02-05T11:40:32.968Z,5.43
2023-02-05T11:43:04.841Z,5.77
2023-02-05T11:45:33.862Z,5.87
2023-02-05T11:48:04.298Z,5.40
2023-02-05T11:50:32.841Z,5.80
2023-02-05T11:53:16.303Z,5.77
2023-02-05T11:55:44.432Z,6.30
2023-02-05T11:58:35.829Z,6.17
2023-02-05T12:01:29.053Z,5.60
2023-02-05T12:04:14.516Z,5.93
2023-02-05T12:06:44.529Z,6.57
2023-02-05T12:09:17.965Z,6.57
2023-02-05T12:12:03.387Z,5.57
2023-02-05T12:14:38.316Z,6.13
2023-02-05T12:17:12.520Z,6.10
2023-02-05T12:19:54.451Z,6.63
2023-02-05T12:22:26.966Z,6.40
2023-02-05T12:25:22.933Z,11.80
2023-02-05T12:28:09.722Z,9.17
2023-02-05T12:30:58.038Z,7.07
2023-02-05T12:33:47.960Z,7.17
2023-02-05T12:36:30.136Z,9.73
2023-02-05T12:39:26.256Z,7.17
2023-02-05T12:42:06.767Z,8.13
2023-02-05T12:44:49.932Z,8.50
2023-02-05T12:47:54.716Z,7.77
2023-02-05T12:50:53.297Z,8.60
2023-02-05T12:53:35.164Z,8.30
2023-02-05T12:56:16.484Z,8.73
2023-02-05T12:58:52.453Z,7.70
2023-02-05T13:01:26.945Z,7.80
2023-02-05T13:04:01.287Z,7.40
2023-02-05T13:06:33.884Z,7.70
2023-02-05T13:09:13.373Z,7.70
2023-02-05T13:11:46.232Z,7.87
2023-02-05T13:14:21.107Z,7.03
2023-02-05T13:17:17.668Z,7.87
2023-02-05T13:19:52.741Z,8.53
2023-02-05T13:22:43.927Z,7.70
2023-02-05T13:25:39.856Z,7.90
2023-02-05T13:28:40.068Z,7.73
2023-02-05T13:31:22.246Z,8.43
2023-02-05T13:33:50.152Z,7.33
2023-02-05T13:36:27.283Z,8.63
2023-02-05T13:39:36.590Z,10.03
2023-02-05T13:42:24.203Z,8.90
2023-02-05T13:45:34.529Z,9.90
2023-02-05T13:48:26.169Z,9.40
2023-02-05T13:51:23.176Z,8.73
2023-02-05T13:54:07.948Z,9.17
2023-02-05T13:57:15.220Z,9.43
2023-02-05T13:59:51.548Z,8.60
2023-02-05T14:02:41.976Z,11.30
2023-02-05T14:05:11.203Z,9.80
2023-02-05T14:07:50.210Z,9.63
2023-02-05T14:10:35.910Z,9.23
2023-02-05T14:13:35.834Z,8.87
2023-02-05T14:16:24.376Z,9.30
2023-02-05T14:19:00.572Z,9.07
2023-02-05T14:21:30.211Z,9.60
2023-02-05T14:24:39.160Z,10.03
2023-02-05T14:27:32.284Z,10.87
2023-02-05T14:30:33.061Z,8.90
2023-02-05T14:33:26.500Z,8.47
2023-02-05T14:36:18.200Z,9.60
2023-02-05T14:38:56.587Z,8.27
2023-02-05T14:41:27.660Z,8.60
2023-02-05T14:43:58.449Z,9.30
2023-02-05T14:46:29.332Z,9.67
2023-02-05T14:49:00.341Z,11.60
2023-02-05T14:51:32.006Z,9.77
2023-02-05T14:54:24.225Z,9.70
2023-02-05T14:56:54.221Z,11.20
2023-02-05T15:00:03.407Z,12.40
2023-02-05T15:02:55.680Z,10.60
2023-02-05T15:05:31.214Z,11.27
2023-02-05T15:08:19.060Z,13.43
2023-02-05T15:11:05.414Z,9.83
2023-02-05T15:13:33.453Z,11.40
2023-02-05T15:16:12.600Z,10.97
2023-02-05T15:18:44.843Z,10.93
2023-02-05T15:21:29.966Z,12.23
2023-02-05T15:24:13.730Z,9.83
2023-02-05T15:26:59.080Z,10.90
2023-02-05T15:29:30.305Z,10.60
2023-02-05T15:32:08.132Z,8.60
2023-02-05T15:34:41.620Z,9.67
2023-02-05T15:37:11.211Z,9.23
2023-02-05T15:39:53.016Z,9.20
2023-02-05T15:42:26.884Z,9.77
2023-02-05T15:44:53.861Z,12.33
2023-02-05T15:47:23.647Z,9.97
2023-02-05T15:49:54.602Z,10.10
2023-02-05T15:52:25.040Z,9.40
2023-02-05T15:54:54.926Z,9.90
2023-02-05T15:57:29.049Z,9.97
2023-02-05T15:59:58.085Z,9.60
2023-02-05T16:02:27.959Z,9.77
2023-02-05T16:05:15.358Z,10.03
2023-02-05T16:07:44.080Z,9.53
2023-02-05T16:10:21.092Z,11.50
2023-02-05T16:13:02.019Z,10.93
2023-02-05T16:15:33.227Z,9.30
2023-02-05T16:18:05.648Z,8.03
2023-02-05T16:20:40.125Z,9.40
2023-02-05T16:23:17.857Z,9.17
2023-02-05T16:25:50.529Z,8.20
2023-02-05T16:28:31.152Z,8.70
2023-02-05T16:30:59.693Z,10.57
2023-02-05T16:33:35.638Z,12.93
2023-02-05T16:36:06.925Z,10.87
2023-02-05T16:38:35.654Z,12.03
2023-02-05T16:41:23.845Z,13.33
2023-02-05T16:43:53.225Z,10.67
2023-02-05T16:46:28.816Z,10.47
2023-02-05T16:49:01.068Z,11.27
2023-02-05T16:51:52.906Z,9.87
2023-02-05T16:54:26.753Z,10.70
2023-02-05T16:57:04.746Z,9.83
2023-02-05T16:59:51.573Z,12.47
2023-02-05T17:02:29.237Z,11.73
2023-02-05T17:04:58.473Z,9.70
2023-02-05T17:07:25.409Z,11.23
2023-02-05T17:09:52.418Z,12.17
2023-02-05T17:12:22.080Z,8.80
2023-02-05T17:14:57.248Z,9.70
2023-02-05T17:17:26.334Z,21.30
2023-02-05T17:20:24.897Z,14.63
2023-02-05T17:23:00.919Z,15.57
2023-02-05T17:25:29.876Z,12.40
2023-02-05T17:27:57.110Z,26.30
2023-02-05T17:30:24.123Z,16.90
2023-02-05T17:32:51.144Z,14.50
2023-02-05T17:35:22.141Z,14.47
2023-02-05T17:37:49.092Z,13.83
2023-02-05T17:40:16.174Z,14.33
2023-02-05T17:42:45.416Z,14.63
2023-02-05T17:45:19.272Z,13.93
2023-02-05T17:47:46.580Z,14.97
2023-02-05T17:50:14.211Z,14.00
2023-02-05T17:52:41.143Z,13.67
2023-02-05T17:55:14.288Z,13.47
2023-02-05T17:57:42.871Z,14.13
2023-02-05T18:00:27.792Z,16.60
2023-02-05T18:02:54.730Z,18.20
2023-02-05T18:05:22.424Z,14.90
2023-02-05T18:07:51.949Z,18.03
2023-02-05T18:10:23.367Z,14.27
2023-02-05T18:12:50.735Z,13.33
2023-02-05T18:15:18.192Z,15.83
2023-02-05T18:17:45.257Z,12.93
2023-02-05T18:20:19.484Z,12.80
2023-02-05T18:22:47.174Z,12.00
2023-02-05T18:25:14.109Z,15.43
2023-02-05T18:27:41.016Z,12.50
2023-02-05T18:30:08.535Z,13.27
2023-02-05T18:32:35.503Z,13.00
2023-02-05T18:35:02.501Z,12.63
2023-02-05T18:37:29.493Z,11.60
2023-02-05T18:39:56.478Z,13.40
2023-02-05T18:42:23.413Z,12.10
2023-02-05T18:44:50.411Z,14.43
2023-02-05T18:47:17.408Z,11.23
2023-02-05T18:49:44.556Z,18.00
2023-02-05T18:52:13.849Z,15.23
2023-02-05T18:54:40.802Z,15.17
2023-02-05T18:57:07.788Z,14.50
2023-02-05T18:59:36.754Z,16.23
2023-02-05T19:02:03.842Z,19.03
2023-02-05T19:04:32.976Z,16.00
2023-02-05T19:06:59.953Z,14.23
2023-02-05T19:09:27.827Z,15.93
2023-02-05T19:11:55.888Z,14.70
2023-02-05T19:14:24.357Z,16.67
2023-02-05T19:16:52.068Z,15.03
2023-02-05T19:19:24.039Z,14.17
2023-02-05T19:21:57.615Z,14.70
2023-02-05T19:24:24.539Z,14.87
2023-02-05T19:26:56.406Z,14.33
2023-02-05T19:29:23.504Z,14.67
2023-02-05T19:31:52.134Z,16.57
2023-02-05T19:34:21.976Z,14.87
2023-02-05T19:36:49.283Z,14.33
2023-02-05T19:39:16.204Z,14.90
2023-02-05T19:41:48.362Z,14.00
2023-02-05T19:44:15.341Z,13.77
2023-02-05T19:46:48.625Z,13.27
2023-02-05T19:49:20.852Z,14.40
2023-02-05T19:51:59.359Z,12.57
2023-02-05T19:54:26.325Z,11.93
2023-02-05T19:56:53.257Z,13.13
2023-02-05T19:59:20.973Z,14.53
2023-02-05T20:01:48.428Z,13.00
2023-02-05T20:04:26.047Z,14.70
2023-02-05T20:06:58.102Z,13.40
2023-02-05T20:09:26.613Z,14.37
2023-02-05T20:11:54.362Z,15.20
2023-02-05T20:14:22.312Z,15.60
2023-02-05T20:16:49.366Z,14.07
2023-02-05T20:19:16.986Z,13.93
2023-02-05T20:21:45.150Z,12.70
2023-02-05T20:24:12.558Z,14.33
2023-02-05T20:26:39.911Z,13.90
2023-02-05T20:29:25.609Z,13.27
2023-02-05T20:31:54.753Z,14.17
2023-02-05T20:34:25.766Z,14.03
2023-02-05T20:36:55.710Z,12.87
2023-02-05T20:39:24.791Z,16.80
2023-02-05T20:41:52.360Z,13.90
2023-02-05T20:44:19.560Z,14.27
2023-02-05T20:46:46.599Z,14.67
2023-02-05T20:49:14.060Z,13.43
2023-02-05T20:51:41.697Z,12.73
2023-02-05T20:54:09.280Z,12.70
2023-02-05T20:56:36.618Z,11.20
2023-02-05T20:59:06.130Z,10.83
2023-02-05T21:01:35.067Z,13.23
2023-02-05T21:04:03.869Z,13.40
2023-02-05T21:06:33.801Z,12.07
2023-02-05T21:09:01.034Z,14.63
2023-02-05T21:11:28.787Z,12.40
2023-02-05T21:13:56.159Z,11.63
2023-02-05T21:16:24.761Z,13.63
2023-02-05T21:18:52.875Z,14.80
2023-02-05T21:21:22.529Z,12.23
2023-02-05T21:23:56.697Z,13.60
2023-02-05T21:26:27.060Z,14.87
2023-02-05T21:29:02.383Z,13.30
2023-02-05T21:31:33.989Z,16.13
2023-02-05T21:34:05.938Z,15.50
2023-02-05T21:36:33.276Z,13.27
2023-02-05T21:39:00.498Z,16.03
2023-02-05T21:41:27.732Z,18.27
2023-02-05T21:43:57.363Z,15.77
2023-02-05T21:46:25.792Z,13.97
2023-02-05T21:48:55.229Z,14.20
2023-02-05T21:51:24.508Z,15.23
2023-02-05T21:53:57.004Z,16.20
2023-02-05T21:56:29.765Z,15.43
2023-02-05T21:58:57.338Z,14.23
2023-02-05T22:01:27.199Z,14.57
2023-02-05T22:03:57.173Z,15.77
2023-02-05T22:06:25.774Z,14.60
2023-02-05T22:08:52.763Z,15.70
2023-02-05T22:11:21.862Z,15.43
2023-02-05T22:13:50.963Z,14.53
2023-02-05T22:16:32.104Z,16.20
2023-02-05T22:19:00.769Z,14.00
2023-02-05T22:21:32.657Z,14.77
2023-02-05T22:24:01.714Z,15.27
2023-02-05T22:26:31.663Z,12.80
2023-02-05T22:29:00.121Z,12.47
2023-02-05T22:31:28.392Z,13.87
2023-02-05T22:33:56.400Z,13.20
2023-02-05T22:36:26.471Z,13.50
2023-02-05T22:38:53.807Z,12.03
2023-02-05T22:41:31.984Z,13.47
2023-02-05T22:44:00.525Z,13.00
2023-02-05T22:46:29.721Z,12.23
2023-02-05T22:48:59.525Z,13.87
2023-02-05T22:51:32.268Z,13.50
2023-02-05T22:53:59.853Z,13.53
2023-02-05T22:56:27.861Z,14.07
2023-02-05T22:58:56.544Z,14.77
2023-02-05T23:01:26.228Z,14.33
2023-02-05T23:03:53.858Z,14.30
2023-02-05T23:06:29.282Z,10.73
2023-02-05T23:09:01.401Z,12.33
2023-02-05T23:11:31.680Z,14.50
2023-02-05T23:14:01.016Z,13.57
2023-02-05T23:16:33.861Z,13.13
2023-02-05T23:19:05.031Z,12.37
2023-02-05T23:21:34.391Z,13.77
2023-02-05T23:24:01.649Z,13.50
2023-02-05T23:26:33.355Z,13.97
2023-02-05T23:29:00.901Z,13.23
2023-02-05T23:31:28.293Z,13.33
2023-02-05T23:33:55.487Z,12.97
2023-02-05T23:36:22.897Z,11.77
2023-02-05T23:38:50.222Z,13.93
2023-02-05T23:41:35.948Z,14.70
2023-02-05T23:44:20.601Z,14.17
2023-02-05T23:46:49.552Z,12.80
2023-02-05T23:49:17.909Z,15.80
2023-02-05T23:51:44.787Z,15.30
2023-02-05T23:54:12.153Z,14.57
2023-02-05T23:56:39.802Z,13.90
2023-02-05T23:59:08.099Z,16.10
